Terminal Aerodrome Forecast
Issued by NWS Billings, MT

Home | Current Version | Previous Version | Text Only | Print | Product List | Glossary On
Versions: 1 2 3 4 5 6 7 8 9 10 11 12 13 14
000
FTUS45 KBYZ 211736
TAFBIL
TAF
KBIL 211736Z 2118/2218 28020G29KT P6SM FEW120
     FM220200 21015KT P6SM SCT080
     FM221000 21015KT P6SM SCT080 WS014/25040KT
     FM221600 27025G35KT P6SM VCSH BKN080=

USA.gov is the U.S. government's official web portal to all federal, state and local government web resources and services.